METAR Data
IDs: Format: Raw Decoded Include TAF

Data at: 0744 UTC 03 Aug 2021

YMAV 030730Z AUTO 27015KT 9999 // SCT034 SCT042 SCT064 10/05 Q1009